createdAt,value
2022-12-27T00:01:48.215Z,80.95
2022-12-27T00:04:16.688Z,80.41
2022-12-27T00:06:46.424Z,80.57
2022-12-27T00:09:14.614Z,80.58
2022-12-27T00:11:42.890Z,80.34
2022-12-27T00:14:12.644Z,80.12
2022-12-27T00:16:41.262Z,80.30
2022-12-27T00:19:09.418Z,81.41
2022-12-27T00:21:37.772Z,81.36
2022-12-27T00:24:08.013Z,81.55
2022-12-27T00:26:36.967Z,80.48
2022-12-27T00:29:05.559Z,79.82
2022-12-27T00:31:34.885Z,80.24
2022-12-27T00:34:04.512Z,79.56
2022-12-27T00:36:33.219Z,79.96
2022-12-27T00:39:01.670Z,80.15
2022-12-27T00:41:31.464Z,79.44
2022-12-27T00:43:59.779Z,79.49
2022-12-27T00:46:33.741Z,80.24
2022-12-27T00:49:02.024Z,80.17
2022-12-27T00:51:30.313Z,80.36
2022-12-27T00:53:58.632Z,80.45
2022-12-27T00:56:28.570Z,79.63
2022-12-27T00:58:59.126Z,80.01
2022-12-27T01:01:29.188Z,80.69
2022-12-27T01:03:58.254Z,79.86
2022-12-27T01:06:29.674Z,80.61
2022-12-27T01:08:58.143Z,80.52
2022-12-27T01:11:28.569Z,79.86
2022-12-27T01:13:59.142Z,80.58
2022-12-27T01:16:29.684Z,80.56
2022-12-27T01:18:58.033Z,79.56
2022-12-27T01:21:28.026Z,81.16
2022-12-27T01:23:56.547Z,80.68
2022-12-27T01:26:25.327Z,80.21
2022-12-27T01:28:54.401Z,80.59
2022-12-27T01:31:26.270Z,80.38
2022-12-27T01:33:56.395Z,80.69
2022-12-27T01:36:25.571Z,80.08
2022-12-27T01:38:53.951Z,80.38
2022-12-27T01:41:42.434Z,81.13
2022-12-27T01:44:53.486Z,80.98
2022-12-27T01:47:43.157Z,81.04
2022-12-27T01:50:16.549Z,80.67
2022-12-27T01:52:46.139Z,80.97
2022-12-27T01:55:21.170Z,81.30
2022-12-27T01:57:50.436Z,80.22
2022-12-27T02:00:18.967Z,81.42
2022-12-27T02:02:48.884Z,80.22
2022-12-27T02:05:19.171Z,80.87
2022-12-27T02:07:56.172Z,80.91
2022-12-27T02:10:24.469Z,81.09
2022-12-27T02:12:52.780Z,81.00
2022-12-27T02:15:21.259Z,81.30
2022-12-27T02:17:51.208Z,80.99
2022-12-27T02:20:21.636Z,79.87
2022-12-27T02:23:45.899Z,81.10
2022-12-27T02:26:40.612Z,80.60
2022-12-27T02:29:37.382Z,81.73
2022-12-27T02:32:07.784Z,81.28
2022-12-27T02:34:46.870Z,81.63
2022-12-27T02:37:15.593Z,81.59
2022-12-27T02:39:47.162Z,81.47
2022-12-27T02:42:33.925Z,81.08
2022-12-27T02:45:21.330Z,80.56
2022-12-27T02:48:08.087Z,82.10
2022-12-27T02:51:03.719Z,81.29
2022-12-27T02:53:38.180Z,80.77
2022-12-27T02:56:33.620Z,81.28
2022-12-27T02:59:14.340Z,81.51
2022-12-27T03:02:08.129Z,82.15
2022-12-27T03:04:40.839Z,81.06
2022-12-27T03:07:23.226Z,81.44
2022-12-27T03:10:25.258Z,81.22
2022-12-27T03:13:17.057Z,80.97
2022-12-27T03:15:56.885Z,81.66
2022-12-27T03:18:57.257Z,81.50
2022-12-27T03:21:45.308Z,81.43
2022-12-27T03:24:31.183Z,80.82
2022-12-27T03:27:00.006Z,81.91
2022-12-27T03:29:45.999Z,82.12
2022-12-27T03:32:32.827Z,81.72
2022-12-27T03:35:07.746Z,81.79
2022-12-27T03:37:56.303Z,81.54
2022-12-27T03:40:30.955Z,81.01
2022-12-27T03:43:11.876Z,81.41
2022-12-27T03:46:08.805Z,82.23
2022-12-27T03:48:41.797Z,81.71
2022-12-27T03:51:11.774Z,82.13
2022-12-27T03:53:42.207Z,81.37
2022-12-27T03:56:11.075Z,81.37
2022-12-27T03:58:39.313Z,82.03
2022-12-27T04:01:07.672Z,81.13
2022-12-27T04:03:36.147Z,81.81
2022-12-27T04:06:04.401Z,82.35
2022-12-27T04:08:51.547Z,81.44
2022-12-27T04:11:37.119Z,81.69
2022-12-27T04:14:22.643Z,81.78
2022-12-27T04:17:08.235Z,81.41
2022-12-27T04:19:54.089Z,81.72
2022-12-27T04:22:39.647Z,81.80
2022-12-27T04:25:27.301Z,82.08
2022-12-27T04:28:12.844Z,82.09
2022-12-27T04:30:58.213Z,82.07
2022-12-27T04:33:43.827Z,82.16
2022-12-27T04:36:12.190Z,82.63
2022-12-27T04:38:40.450Z,82.71
2022-12-27T04:41:27.417Z,82.85
2022-12-27T04:44:12.872Z,82.43
2022-12-27T04:46:59.479Z,83.88
2022-12-27T04:49:45.475Z,82.88
2022-12-27T04:52:35.539Z,83.19
2022-12-27T04:55:13.824Z,83.40
2022-12-27T04:57:43.617Z,83.08
2022-12-27T05:00:30.833Z,83.82
2022-12-27T05:02:59.510Z,84.36
2022-12-27T05:05:28.004Z,83.69
2022-12-27T05:08:14.388Z,83.94
2022-12-27T05:10:59.875Z,84.65
2022-12-27T05:13:47.001Z,84.90
2022-12-27T05:16:15.446Z,85.15
2022-12-27T05:18:44.939Z,85.12
2022-12-27T05:21:13.196Z,85.59
2022-12-27T05:24:04.937Z,85.28
2022-12-27T05:26:34.277Z,85.86
2022-12-27T05:29:03.968Z,86.33
2022-12-27T05:31:32.503Z,85.46
2022-12-27T05:34:00.876Z,85.66
2022-12-27T05:36:29.344Z,85.50
2022-12-27T05:38:57.755Z,85.88
2022-12-27T05:41:26.015Z,85.47
2022-12-27T05:43:54.233Z,85.74
2022-12-27T05:46:24.107Z,85.91
2022-12-27T05:48:52.423Z,85.74
2022-12-27T05:51:22.217Z,85.80
2022-12-27T05:53:50.923Z,85.80
2022-12-27T05:56:21.142Z,85.54
2022-12-27T05:58:49.561Z,86.10
2022-12-27T06:01:18.895Z,86.24
2022-12-27T06:03:49.791Z,85.79
2022-12-27T06:06:18.022Z,85.68
2022-12-27T06:08:46.223Z,85.94
2022-12-27T06:11:16.146Z,85.52
2022-12-27T06:13:46.068Z,85.97
2022-12-27T06:16:14.418Z,84.87
2022-12-27T06:18:43.584Z,85.35
2022-12-27T06:21:14.980Z,86.10
2022-12-27T06:23:44.836Z,85.12
2022-12-27T06:26:16.049Z,85.70
2022-12-27T06:28:44.404Z,85.15
2022-12-27T06:31:12.968Z,86.66
2022-12-27T06:33:41.253Z,85.75
2022-12-27T06:36:11.020Z,85.69
2022-12-27T06:38:40.772Z,85.71
2022-12-27T06:41:11.665Z,85.39
2022-12-27T06:43:40.311Z,85.88
2022-12-27T06:46:17.049Z,85.37
2022-12-27T06:48:45.800Z,85.34
2022-12-27T06:51:15.986Z,85.06
2022-12-27T06:53:45.665Z,86.33
2022-12-27T06:56:16.790Z,85.97
2022-12-27T06:58:45.515Z,85.94
2022-12-27T07:01:15.489Z,86.19
2022-12-27T07:03:44.053Z,85.50
2022-12-27T07:06:13.082Z,85.73
2022-12-27T07:08:41.451Z,86.15
2022-12-27T07:11:13.227Z,85.90
2022-12-27T07:13:43.788Z,85.69
2022-12-27T07:16:13.879Z,85.96
2022-12-27T07:18:42.568Z,86.24
2022-12-27T07:21:13.123Z,86.51
2022-12-27T07:23:41.906Z,85.90
2022-12-27T07:26:12.935Z,86.75
2022-12-27T07:28:42.487Z,86.46
2022-12-27T07:31:11.450Z,86.66
2022-12-27T07:33:39.992Z,87.70
2022-12-27T07:36:10.588Z,86.91
2022-12-27T07:38:38.927Z,87.00
2022-12-27T07:41:07.511Z,88.05
2022-12-27T07:43:37.259Z,87.75
2022-12-27T07:46:06.595Z,88.86
2022-12-27T07:48:34.845Z,88.10
2022-12-27T07:51:03.280Z,88.45
2022-12-27T07:53:32.206Z,89.92
2022-12-27T07:56:00.611Z,88.78
2022-12-27T07:58:28.820Z,90.19
2022-12-27T08:00:58.992Z,89.02
2022-12-27T08:03:27.242Z,89.18
2022-12-27T08:05:55.617Z,88.67
2022-12-27T08:08:25.692Z,89.55
2022-12-27T08:10:54.183Z,89.52
2022-12-27T08:13:22.537Z,88.64
2022-12-27T08:15:53.832Z,88.46
2022-12-27T08:18:23.568Z,89.69
2022-12-27T08:20:52.321Z,88.22
2022-12-27T08:23:20.600Z,88.79
2022-12-27T08:25:49.314Z,88.13
2022-12-27T08:28:19.137Z,88.57
2022-12-27T08:30:48.334Z,88.24
2022-12-27T08:33:16.985Z,88.58
2022-12-27T08:35:54.969Z,88.33
2022-12-27T08:38:23.758Z,89.43
2022-12-27T08:40:52.046Z,88.47
2022-12-27T08:43:20.720Z,87.94
2022-12-27T08:45:49.104Z,88.71
2022-12-27T08:48:17.392Z,88.99
2022-12-27T08:50:46.991Z,88.40
2022-12-27T08:53:15.235Z,88.15
2022-12-27T08:55:43.462Z,88.45
2022-12-27T08:58:16.384Z,88.99
2022-12-27T09:00:45.095Z,89.09
2022-12-27T09:03:13.452Z,89.11
2022-12-27T09:05:42.348Z,88.72
2022-12-27T09:08:12.669Z,89.08
2022-12-27T09:10:41.019Z,89.64
2022-12-27T09:13:09.175Z,89.38
2022-12-27T09:15:39.078Z,89.45
2022-12-27T09:18:08.202Z,88.81
2022-12-27T09:20:36.445Z,89.09
2022-12-27T09:23:04.870Z,89.14
2022-12-27T09:25:34.529Z,89.25
2022-12-27T09:28:02.765Z,89.28
2022-12-27T09:30:31.066Z,88.62
2022-12-27T09:32:59.881Z,89.30
2022-12-27T09:35:28.061Z,89.91
2022-12-27T09:37:56.545Z,88.99
2022-12-27T09:40:24.877Z,89.74
2022-12-27T09:43:11.823Z,88.50
2022-12-27T09:45:43.353Z,88.97
2022-12-27T09:48:14.935Z,88.86
2022-12-27T09:50:49.501Z,88.75
2022-12-27T09:53:20.273Z,89.05
2022-12-27T09:55:50.229Z,89.28
2022-12-27T09:58:33.884Z,89.50
2022-12-27T10:01:01.983Z,89.03
2022-12-27T10:03:31.626Z,89.41
2022-12-27T10:06:08.926Z,89.86
2022-12-27T10:08:45.046Z,89.71
2022-12-27T10:11:36.297Z,89.34
2022-12-27T10:14:15.812Z,89.55
2022-12-27T10:16:50.220Z,90.02
2022-12-27T10:19:26.605Z,90.15
2022-12-27T10:22:03.247Z,89.83
2022-12-27T10:24:37.166Z,90.41
2022-12-27T10:27:13.094Z,90.32
2022-12-27T10:29:42.854Z,89.99
2022-12-27T10:32:13.987Z,90.27
2022-12-27T10:34:42.239Z,89.79
2022-12-27T10:37:13.300Z,90.52
2022-12-27T10:39:41.867Z,90.58
2022-12-27T10:42:17.029Z,91.26
2022-12-27T10:44:46.724Z,90.93
2022-12-27T10:47:15.078Z,90.62
2022-12-27T10:49:44.709Z,91.30
2022-12-27T10:52:19.945Z,91.93
2022-12-27T10:54:53.398Z,91.47
2022-12-27T10:57:27.871Z,92.08
2022-12-27T11:00:16.712Z,91.31
2022-12-27T11:02:52.065Z,91.62
2022-12-27T11:05:25.343Z,92.21
2022-12-27T11:07:53.705Z,92.37
2022-12-27T11:10:23.701Z,91.84
2022-12-27T11:12:59.425Z,91.86
2022-12-27T11:15:30.605Z,93.04
2022-12-27T11:18:00.324Z,93.74
2022-12-27T11:20:29.747Z,93.80
2022-12-27T11:23:00.515Z,93.72
2022-12-27T11:25:29.697Z,93.72
2022-12-27T11:28:01.418Z,94.26
2022-12-27T11:30:32.814Z,94.31
2022-12-27T11:33:04.783Z,94.76
2022-12-27T11:35:35.719Z,94.50
2022-12-27T11:38:03.955Z,94.40
2022-12-27T11:40:34.956Z,94.66
2022-12-27T11:43:09.420Z,94.90
2022-12-27T11:45:42.265Z,94.69
2022-12-27T11:48:21.059Z,94.42
2022-12-27T11:51:12.482Z,94.86
2022-12-27T11:54:08.351Z,94.67
2022-12-27T11:56:37.086Z,95.03
2022-12-27T11:59:25.522Z,95.27
2022-12-27T12:02:29.309Z,95.34
2022-12-27T12:05:32.343Z,94.95
2022-12-27T12:08:15.663Z,96.18
2022-12-27T12:10:51.798Z,95.26
2022-12-27T12:13:54.315Z,95.66
2022-12-27T12:16:41.151Z,96.00
2022-12-27T12:19:18.589Z,96.04
2022-12-27T12:21:50.572Z,96.48
2022-12-27T12:24:38.392Z,95.59
2022-12-27T12:27:29.097Z,96.66
2022-12-27T12:30:27.422Z,96.76
2022-12-27T12:33:09.611Z,95.77
2022-12-27T12:35:49.391Z,96.74
2022-12-27T12:38:23.217Z,96.70
2022-12-27T12:41:23.629Z,97.33
2022-12-27T12:44:17.161Z,97.45
2022-12-27T12:46:48.558Z,97.28
2022-12-27T12:49:31.736Z,96.93
2022-12-27T12:52:17.179Z,97.30
2022-12-27T12:55:13.261Z,97.03
2022-12-27T12:57:49.704Z,96.88
2022-12-27T13:00:28.759Z,97.19
2022-12-27T13:03:23.597Z,96.86
2022-12-27T13:05:55.064Z,97.56
2022-12-27T13:08:31.101Z,96.97
2022-12-27T13:11:08.548Z,97.78
2022-12-27T13:13:45.857Z,99.06
2022-12-27T13:16:21.758Z,98.15
2022-12-27T13:18:58.470Z,98.17
2022-12-27T13:21:41.635Z,98.89
2022-12-27T13:24:16.272Z,99.23
2022-12-27T13:26:50.735Z,99.60
2022-12-27T13:29:36.369Z,99.59
2022-12-27T13:32:12.907Z,99.48
2022-12-27T13:34:47.458Z,99.19
2022-12-27T13:37:26.612Z,99.53
2022-12-27T13:40:26.912Z,99.54
2022-12-27T13:43:19.071Z,99.78
2022-12-27T13:45:56.788Z,99.84
2022-12-27T13:48:41.274Z,99.44
2022-12-27T13:51:18.124Z,99.94
2022-12-27T13:54:12.026Z,99.30
2022-12-27T13:56:54.452Z,99.48
2022-12-27T13:59:46.226Z,99.46
2022-12-27T14:02:59.711Z,99.06
2022-12-27T14:06:06.460Z,99.14
2022-12-27T14:08:47.059Z,99.31
2022-12-27T14:11:24.811Z,99.27
2022-12-27T14:13:55.161Z,99.80
2022-12-27T14:16:35.576Z,99.38
2022-12-27T14:19:45.363Z,99.53
2022-12-27T14:22:42.941Z,99.05
2022-12-27T14:25:48.113Z,99.77
2022-12-27T14:28:48.519Z,100.00
2022-12-27T14:31:43.764Z,99.78
2022-12-27T14:34:37.061Z,100.00
2022-12-27T14:38:05.065Z,100.00
2022-12-27T14:40:49.189Z,100.00
2022-12-27T14:43:41.114Z,100.00
2022-12-27T14:46:44.806Z,100.00
2022-12-27T14:49:55.900Z,100.00
2022-12-27T14:53:05.963Z,100.00
2022-12-27T14:55:43.715Z,100.00
2022-12-27T14:58:30.992Z,100.00
2022-12-27T15:01:06.407Z,100.00
2022-12-27T15:03:55.499Z,100.00
2022-12-27T15:06:46.937Z,100.00
2022-12-27T15:09:26.371Z,100.00
2022-12-27T15:12:02.482Z,100.00
2022-12-27T15:14:46.210Z,100.00
2022-12-27T15:17:22.737Z,100.00
2022-12-27T15:20:16.686Z,100.00
2022-12-27T15:22:54.991Z,100.00
2022-12-27T15:25:32.120Z,100.00
2022-12-27T15:28:06.628Z,100.00
2022-12-27T15:30:44.275Z,100.00
2022-12-27T15:33:23.072Z,100.00
2022-12-27T15:35:56.723Z,100.00
2022-12-27T15:38:53.882Z,100.00
2022-12-27T15:41:36.389Z,100.00
2022-12-27T15:44:18.621Z,100.00
2022-12-27T15:47:10.915Z,100.00
2022-12-27T15:50:03.394Z,100.00
2022-12-27T15:52:40.657Z,100.00
2022-12-27T15:55:23.340Z,100.00
2022-12-27T15:58:08.587Z,100.00
2022-12-27T16:00:37.676Z,100.00
2022-12-27T16:03:24.453Z,100.00
2022-12-27T16:05:53.519Z,100.00
2022-12-27T16:08:42.570Z,100.00
2022-12-27T16:11:12.927Z,100.00
2022-12-27T16:13:49.061Z,100.00
2022-12-27T16:16:56.826Z,100.00
2022-12-27T16:20:06.943Z,100.00
2022-12-27T16:22:38.287Z,100.00
2022-12-27T16:25:28.686Z,100.00
2022-12-27T16:28:01.847Z,100.00
2022-12-27T16:30:52.408Z,100.00
2022-12-27T16:33:35.099Z,100.00
2022-12-27T16:36:21.173Z,100.00
2022-12-27T16:38:59.111Z,100.00
2022-12-27T16:41:41.102Z,100.00
2022-12-27T16:44:17.275Z,100.00
2022-12-27T16:46:59.592Z,100.00
2022-12-27T16:49:56.695Z,100.00
2022-12-27T16:52:37.595Z,100.00
2022-12-27T16:55:23.173Z,100.00
2022-12-27T16:57:52.401Z,100.00
2022-12-27T17:00:39.197Z,100.00
2022-12-27T17:03:40.749Z,100.00
2022-12-27T17:06:42.263Z,100.00
2022-12-27T17:09:41.738Z,100.00
2022-12-27T17:12:19.109Z,100.00
2022-12-27T17:14:48.037Z,100.00
2022-12-27T17:17:19.093Z,100.00
2022-12-27T17:19:52.382Z,100.00
2022-12-27T17:22:20.359Z,100.00
2022-12-27T17:24:51.315Z,100.00
2022-12-27T17:27:31.824Z,100.00
2022-12-27T17:30:07.494Z,100.00
2022-12-27T17:32:47.149Z,100.00
2022-12-27T17:35:22.149Z,100.00
2022-12-27T17:38:03.693Z,100.00
2022-12-27T17:40:38.555Z,100.00
2022-12-27T17:43:34.038Z,100.00
2022-12-27T17:46:16.879Z,100.00
2022-12-27T17:48:46.623Z,100.00
2022-12-27T17:51:18.941Z,100.00
2022-12-27T17:54:04.945Z,100.00
2022-12-27T17:56:57.524Z,100.00
2022-12-27T17:59:27.559Z,100.00
2022-12-27T18:01:57.878Z,100.00
2022-12-27T18:04:28.133Z,100.00
2022-12-27T18:06:57.475Z,100.00
2022-12-27T18:09:38.207Z,100.00
2022-12-27T18:12:12.092Z,100.00
2022-12-27T18:14:40.456Z,100.00
2022-12-27T18:17:08.716Z,100.00
2022-12-27T18:19:38.216Z,100.00
2022-12-27T18:22:06.685Z,100.00
2022-12-27T18:24:35.277Z,100.00
2022-12-27T18:27:06.240Z,100.00
2022-12-27T18:29:36.028Z,100.00
2022-12-27T18:32:06.186Z,100.00
2022-12-27T18:34:38.393Z,100.00
2022-12-27T18:37:08.535Z,100.00
2022-12-27T18:39:38.521Z,100.00
2022-12-27T18:42:13.597Z,100.00
2022-12-27T18:44:46.979Z,100.00
2022-12-27T18:47:21.171Z,100.00
2022-12-27T18:49:54.086Z,100.00
2022-12-27T18:52:26.452Z,100.00
2022-12-27T18:54:55.624Z,100.00
2022-12-27T18:57:33.320Z,100.00
2022-12-27T19:00:12.499Z,100.00
2022-12-27T19:02:41.266Z,100.00
2022-12-27T19:05:29.503Z,100.00
2022-12-27T19:08:02.472Z,100.00
2022-12-27T19:10:33.719Z,100.00
2022-12-27T19:13:02.524Z,100.00
2022-12-27T19:15:39.484Z,100.00
2022-12-27T19:18:20.870Z,100.00
2022-12-27T19:20:55.452Z,100.00
2022-12-27T19:23:28.319Z,100.00
2022-12-27T19:26:02.281Z,100.00
2022-12-27T19:28:31.712Z,100.00
2022-12-27T19:31:18.374Z,100.00
2022-12-27T19:33:49.740Z,100.00
2022-12-27T19:36:18.247Z,100.00
2022-12-27T19:38:48.189Z,100.00
2022-12-27T19:41:16.609Z,100.00
2022-12-27T19:43:46.657Z,100.00
2022-12-27T19:46:19.209Z,100.00
2022-12-27T19:49:01.141Z,100.00
2022-12-27T19:51:37.362Z,100.00
2022-12-27T19:54:08.914Z,100.00
2022-12-27T19:56:38.786Z,100.00
2022-12-27T19:59:07.027Z,100.00
2022-12-27T20:01:36.823Z,100.00
2022-12-27T20:04:05.194Z,100.00
2022-12-27T20:06:33.471Z,100.00
2022-12-27T20:09:01.923Z,100.00
2022-12-27T20:11:30.264Z,100.00
2022-12-27T20:13:58.504Z,100.00
2022-12-27T20:16:26.903Z,100.00
2022-12-27T20:18:56.769Z,100.00
2022-12-27T20:21:25.067Z,100.00
2022-12-27T20:23:53.373Z,100.00
2022-12-27T20:26:24.009Z,100.00
2022-12-27T20:28:53.561Z,100.00
2022-12-27T20:31:22.859Z,100.00
2022-12-27T20:33:56.618Z,100.00
2022-12-27T20:36:25.188Z,100.00
2022-12-27T20:38:53.347Z,100.00
2022-12-27T20:41:23.166Z,100.00
2022-12-27T20:43:55.942Z,100.00
2022-12-27T20:46:24.869Z,100.00
2022-12-27T20:48:54.323Z,100.00
2022-12-27T20:51:25.416Z,100.00
2022-12-27T20:53:56.432Z,100.00
2022-12-27T20:56:25.161Z,100.00
2022-12-27T20:58:53.746Z,100.00
2022-12-27T21:01:23.603Z,100.00
2022-12-27T21:03:52.025Z,100.00
2022-12-27T21:06:24.268Z,100.00
2022-12-27T21:08:57.136Z,100.00
2022-12-27T21:11:27.968Z,100.00
2022-12-27T21:13:56.808Z,100.00
2022-12-27T21:16:26.767Z,100.00
2022-12-27T21:18:56.023Z,100.00
2022-12-27T21:21:28.612Z,100.00
2022-12-27T21:23:57.698Z,100.00
2022-12-27T21:26:28.100Z,100.00
2022-12-27T21:28:57.281Z,100.00
2022-12-27T21:31:25.948Z,100.00
2022-12-27T21:33:54.243Z,100.00
2022-12-27T21:36:24.611Z,100.00
2022-12-27T21:38:54.764Z,100.00
2022-12-27T21:41:24.515Z,100.00
2022-12-27T21:43:53.269Z,100.00
2022-12-27T21:46:23.460Z,100.00
2022-12-27T21:48:55.880Z,100.00
2022-12-27T21:51:24.590Z,100.00
2022-12-27T21:53:54.430Z,100.00
2022-12-27T21:56:23.111Z,100.00
2022-12-27T21:58:51.810Z,100.00
2022-12-27T22:01:22.465Z,100.00
2022-12-27T22:03:52.294Z,100.00
2022-12-27T22:06:22.507Z,100.00
2022-12-27T22:08:51.713Z,100.00
2022-12-27T22:11:22.657Z,100.00
2022-12-27T22:13:51.041Z,100.00
2022-12-27T22:16:20.878Z,100.00
2022-12-27T22:18:50.164Z,100.00
2022-12-27T22:21:19.884Z,100.00
2022-12-27T22:23:50.318Z,100.00
2022-12-27T22:26:21.446Z,100.00
2022-12-27T22:28:49.958Z,100.00
2022-12-27T22:31:20.582Z,100.00
2022-12-27T22:33:49.309Z,100.00
2022-12-27T22:36:19.086Z,100.00
2022-12-27T22:38:49.672Z,100.00
2022-12-27T22:41:21.768Z,100.00
2022-12-27T22:43:51.912Z,100.00
2022-12-27T22:46:20.579Z,100.00
2022-12-27T22:48:50.860Z,100.00
2022-12-27T22:51:20.646Z,100.00
2022-12-27T22:53:49.326Z,100.00
2022-12-27T22:56:19.075Z,100.00
2022-12-27T22:58:49.012Z,100.00
2022-12-27T23:01:19.167Z,100.00
2022-12-27T23:03:48.031Z,100.00
2022-12-27T23:06:16.783Z,100.00
2022-12-27T23:08:45.659Z,100.00
2022-12-27T23:11:15.054Z,100.00
2022-12-27T23:13:43.535Z,100.00
2022-12-27T23:16:13.276Z,100.00
2022-12-27T23:18:41.651Z,100.00
2022-12-27T23:21:20.708Z,100.00
2022-12-27T23:23:52.602Z,100.00
2022-12-27T23:26:23.193Z,100.00
2022-12-27T23:28:53.015Z,100.00
2022-12-27T23:31:23.997Z,100.00
2022-12-27T23:33:52.908Z,100.00
2022-12-27T23:36:21.847Z,100.00
2022-12-27T23:38:50.629Z,100.00
2022-12-27T23:41:20.302Z,100.00
2022-12-27T23:43:53.743Z,100.00
2022-12-27T23:46:27.688Z,100.00
2022-12-27T23:48:56.493Z,100.00
2022-12-27T23:51:25.025Z,100.00
2022-12-27T23:53:53.341Z,100.00
2022-12-27T23:56:23.855Z,100.00
2022-12-27T23:58:53.842Z,100.00
